Endeavor, Wisconsin
Current Conditions -  °F | °C
As of 8:10 AM on Tuesday 27 Jan 2015 (Local Time) from KDLL Reporting Station
Haze Haze  
Wind Chill: 17°   Ceiling: 1400
Heat Index: 23°   Visibility: 4mi
Dew Point: 21°   Wind: 5mph
Humidity: 92%   Direction: 360°N
Pressure: 30.12"   Gusts: NA
Location:  43.72°N, 89.47°W
Report Text: KDLL 271410Z AUTO 36004KT 4SM BR OVC014 M05/M06 A3012 RMK AO2 T10511062
Loading
Personal Weather Stations






























Interactive Weather Map New forecast layout! Learn more

10-Day Weather Forecast

Advertisements
Track Severe Weather on mobile